createdAt,value
2022-10-08T00:00:35.116Z,1012.57
2022-10-08T00:01:35.155Z,1012.63
2022-10-08T00:02:35.074Z,1012.57
2022-10-08T00:03:35.062Z,1012.58
2022-10-08T00:04:35.123Z,1012.52
2022-10-08T00:05:35.039Z,1012.50
2022-10-08T00:06:35.030Z,1012.59
2022-10-08T00:07:35.048Z,1012.54
2022-10-08T00:08:35.011Z,1012.57
2022-10-08T00:09:35.006Z,1012.52
2022-10-08T00:10:34.986Z,1012.55
2022-10-08T00:11:34.976Z,1012.53
2022-10-08T00:12:34.964Z,1012.55
2022-10-08T00:13:34.958Z,1012.55
2022-10-08T00:14:34.944Z,1012.50
2022-10-08T00:15:34.945Z,1012.48
2022-10-08T00:16:35.023Z,1012.47
2022-10-08T00:17:34.907Z,1012.45
2022-10-08T00:18:34.902Z,1012.48
2022-10-08T00:19:34.901Z,1012.46
2022-10-08T00:20:34.879Z,1012.44
2022-10-08T00:21:34.864Z,1012.48
2022-10-08T00:22:34.852Z,1012.44
2022-10-08T00:23:34.842Z,1012.45
2022-10-08T00:24:34.836Z,1012.42
2022-10-08T00:25:34.835Z,1012.45
2022-10-08T00:26:37.470Z,1012.39
2022-10-08T00:27:35.797Z,1012.41
2022-10-08T00:28:34.871Z,1012.45
2022-10-08T00:29:34.777Z,1012.47
2022-10-08T00:30:34.764Z,1012.44
2022-10-08T00:31:34.857Z,1012.41
2022-10-08T00:32:34.762Z,1012.39
2022-10-08T00:33:34.734Z,1012.43
2022-10-08T00:34:34.719Z,1012.37
2022-10-08T00:35:34.710Z,1012.44
2022-10-08T00:36:34.697Z,1012.42
2022-10-08T00:37:34.693Z,1012.48
2022-10-08T00:38:34.679Z,1012.45
2022-10-08T00:39:34.664Z,1012.49
2022-10-08T00:40:34.655Z,1012.51
2022-10-08T00:41:34.640Z,1012.47
2022-10-08T00:42:34.630Z,1012.49
2022-10-08T00:43:34.650Z,1012.47
2022-10-08T00:44:34.614Z,1012.45
2022-10-08T00:45:34.671Z,1012.43
2022-10-08T00:46:34.586Z,1012.46
2022-10-08T00:47:34.576Z,1012.46
2022-10-08T00:48:34.582Z,1012.42
2022-10-08T00:49:34.560Z,1012.45
2022-10-08T00:50:34.545Z,1012.46
2022-10-08T00:51:34.533Z,1012.45
2022-10-08T00:52:34.519Z,1012.41
2022-10-08T00:53:34.510Z,1012.44
2022-10-08T00:54:34.499Z,1012.44
2022-10-08T00:55:34.510Z,1012.41
2022-10-08T00:56:34.479Z,1012.42
2022-10-08T00:57:34.465Z,1012.37
2022-10-08T00:58:34.464Z,1012.35
2022-10-08T00:59:34.442Z,1012.36
2022-10-08T01:00:34.478Z,1012.34
2022-10-08T01:01:34.451Z,1012.35
2022-10-08T01:02:34.417Z,1012.31
2022-10-08T01:03:34.397Z,1012.28
2022-10-08T01:04:34.404Z,1012.29
2022-10-08T01:05:34.380Z,1012.30
2022-10-08T01:06:34.365Z,1012.31
2022-10-08T01:07:34.366Z,1012.31
2022-10-08T01:08:34.345Z,1012.34
2022-10-08T01:09:34.336Z,1012.27
2022-10-08T01:10:34.328Z,1012.29
2022-10-08T01:11:34.309Z,1012.24
2022-10-08T01:12:34.298Z,1012.26
2022-10-08T01:13:34.306Z,1012.24
2022-10-08T01:14:34.284Z,1012.25
2022-10-08T01:15:34.265Z,1012.24
2022-10-08T01:16:34.332Z,1012.26
2022-10-08T01:17:34.242Z,1012.24
2022-10-08T01:18:34.232Z,1012.22
2022-10-08T01:19:34.226Z,1012.22
2022-10-08T01:20:34.230Z,1012.20
2022-10-08T01:21:34.200Z,1012.23
2022-10-08T01:22:34.191Z,1012.22
2022-10-08T01:23:34.178Z,1012.24
2022-10-08T01:24:34.171Z,1012.22
2022-10-08T01:25:34.187Z,1012.22
2022-10-08T01:26:34.144Z,1012.21
2022-10-08T01:27:34.132Z,1012.20
2022-10-08T01:28:34.180Z,1012.22
2022-10-08T01:29:34.112Z,1012.20
2022-10-08T01:30:34.100Z,1012.21
2022-10-08T01:31:34.160Z,1012.23
2022-10-08T01:32:34.077Z,1012.18
2022-10-08T01:33:34.066Z,1012.13
2022-10-08T01:34:34.054Z,1012.16
2022-10-08T01:35:34.045Z,1012.15
2022-10-08T01:36:34.054Z,1012.15
2022-10-08T01:37:34.031Z,1012.13
2022-10-08T01:38:34.010Z,1012.14
2022-10-08T01:39:34.002Z,1012.16
2022-10-08T01:40:33.989Z,1012.15
2022-10-08T01:41:33.980Z,1012.14
2022-10-08T01:42:33.966Z,1012.12
2022-10-08T01:43:33.960Z,1012.12
2022-10-08T01:44:33.943Z,1012.14
2022-10-08T01:45:33.970Z,1012.10
2022-10-08T01:46:33.923Z,1012.12
2022-10-08T01:47:33.912Z,1012.13
2022-10-08T01:48:33.904Z,1012.12
2022-10-08T01:49:33.918Z,1012.10
2022-10-08T01:50:33.880Z,1012.08
2022-10-08T01:51:33.871Z,1012.08
2022-10-08T01:52:33.873Z,1012.03
2022-10-08T01:53:33.846Z,1012.02
2022-10-08T01:54:33.835Z,1012.04
2022-10-08T01:55:33.828Z,1011.98
2022-10-08T01:56:33.812Z,1011.96
2022-10-08T01:57:33.803Z,1011.97
2022-10-08T01:58:33.794Z,1011.94
2022-10-08T01:59:33.777Z,1011.97
2022-10-08T02:00:33.767Z,1011.95
2022-10-08T02:01:33.845Z,1012.00
2022-10-08T02:02:33.796Z,1012.01
2022-10-08T02:03:33.735Z,1012.00
2022-10-08T02:04:33.725Z,1011.99
2022-10-08T02:05:33.711Z,1011.97
2022-10-08T02:06:33.701Z,1011.93
2022-10-08T02:07:33.733Z,1011.84
2022-10-08T02:08:33.697Z,1011.85
2022-10-08T02:09:33.669Z,1011.82
2022-10-08T02:10:33.658Z,1011.80
2022-10-08T02:11:33.645Z,1011.75
2022-10-08T02:12:33.633Z,1011.73
2022-10-08T02:13:33.628Z,1011.73
2022-10-08T02:14:33.613Z,1011.71
2022-10-08T02:15:33.601Z,1011.73
2022-10-08T02:16:33.694Z,1011.77
2022-10-08T02:17:33.578Z,1011.84
2022-10-08T02:18:33.567Z,1011.76
2022-10-08T02:19:33.563Z,1011.77
2022-10-08T02:20:33.545Z,1011.75
2022-10-08T02:21:33.535Z,1011.72
2022-10-08T02:22:33.524Z,1011.74
2022-10-08T02:23:33.511Z,1011.71
2022-10-08T02:24:33.519Z,1011.72
2022-10-08T02:25:33.521Z,1011.69
2022-10-08T02:26:33.478Z,1011.70
2022-10-08T02:27:33.467Z,1011.72
2022-10-08T02:28:33.497Z,1011.74
2022-10-08T02:29:33.453Z,1011.76
2022-10-08T02:30:33.434Z,1011.75
2022-10-08T02:31:33.563Z,1011.75
2022-10-08T02:32:33.411Z,1011.78
2022-10-08T02:33:33.402Z,1011.80
2022-10-08T02:34:33.400Z,1011.78
2022-10-08T02:35:33.380Z,1011.77
2022-10-08T02:36:33.367Z,1011.77
2022-10-08T02:37:33.384Z,1011.77
2022-10-08T02:38:33.346Z,1011.77
2022-10-08T02:39:33.333Z,1011.78
2022-10-08T02:40:33.342Z,1011.76
2022-10-08T02:41:33.311Z,1011.69
2022-10-08T02:42:33.300Z,1011.66
2022-10-08T02:43:33.305Z,1011.69
2022-10-08T02:44:33.277Z,1011.77
2022-10-08T02:45:33.367Z,1011.75
2022-10-08T02:46:33.256Z,1011.69
2022-10-08T02:47:33.245Z,1011.71
2022-10-08T02:48:33.233Z,1011.74
2022-10-08T02:49:33.232Z,1011.78
2022-10-08T02:50:33.213Z,1011.77
2022-10-08T02:51:33.201Z,1011.78
2022-10-08T02:52:33.190Z,1011.77
2022-10-08T02:53:33.179Z,1011.73
2022-10-08T02:54:33.175Z,1011.76
2022-10-08T02:55:33.173Z,1011.76
2022-10-08T02:56:33.166Z,1011.84
2022-10-08T02:57:33.171Z,1011.86
2022-10-08T02:58:33.130Z,1011.83
2022-10-08T02:59:33.122Z,1011.84
2022-10-08T03:00:33.119Z,1011.87
2022-10-08T03:01:33.255Z,1011.82
2022-10-08T03:02:33.218Z,1011.90
2022-10-08T03:03:33.072Z,1011.86
2022-10-08T03:04:33.059Z,1011.82
2022-10-08T03:05:33.047Z,1011.81
2022-10-08T03:06:33.035Z,1011.84
2022-10-08T03:07:33.031Z,1011.84
2022-10-08T03:08:33.023Z,1011.83
2022-10-08T03:09:33.007Z,1011.87
2022-10-08T03:10:33.001Z,1011.84
2022-10-08T03:11:32.985Z,1011.88
2022-10-08T03:12:32.986Z,1011.90
2022-10-08T03:13:32.981Z,1011.86
2022-10-08T03:14:32.946Z,1011.85
2022-10-08T03:15:32.945Z,1011.84
2022-10-08T03:16:32.987Z,1011.82
2022-10-08T03:17:32.923Z,1011.85
2022-10-08T03:18:32.904Z,1011.86
2022-10-08T03:19:32.908Z,1011.81
2022-10-08T03:20:32.879Z,1011.82
2022-10-08T03:21:32.875Z,1011.87
2022-10-08T03:22:32.857Z,1011.85
2022-10-08T03:23:32.846Z,1011.86
2022-10-08T03:24:32.836Z,1011.88
2022-10-08T03:25:32.831Z,1011.83
2022-10-08T03:26:32.813Z,1011.88
2022-10-08T03:27:32.802Z,1011.88
2022-10-08T03:28:32.867Z,1011.88
2022-10-08T03:29:32.779Z,1011.87
2022-10-08T03:30:32.823Z,1011.89
2022-10-08T03:31:32.765Z,1011.86
2022-10-08T03:32:32.748Z,1011.87
2022-10-08T03:33:32.736Z,1011.85
2022-10-08T03:34:32.732Z,1011.91
2022-10-08T03:35:32.713Z,1011.93
2022-10-08T03:36:32.702Z,1011.91
2022-10-08T03:37:32.727Z,1011.89
2022-10-08T03:38:32.681Z,1011.90
2022-10-08T03:39:32.669Z,1011.88
2022-10-08T03:40:32.659Z,1011.92
2022-10-08T03:41:32.648Z,1011.88
2022-10-08T03:42:32.637Z,1011.89
2022-10-08T03:43:32.630Z,1011.89
2022-10-08T03:44:32.632Z,1011.96
2022-10-08T03:45:32.607Z,1011.95
2022-10-08T03:46:32.673Z,1011.93
2022-10-08T03:47:32.580Z,1011.89
2022-10-08T03:48:32.569Z,1011.88
2022-10-08T03:49:32.576Z,1011.85
2022-10-08T03:50:32.547Z,1011.86
2022-10-08T03:51:32.541Z,1011.87
2022-10-08T03:52:32.525Z,1011.90
2022-10-08T03:53:32.517Z,1011.88
2022-10-08T03:54:32.503Z,1011.87
2022-10-08T03:55:32.500Z,1011.81
2022-10-08T03:56:32.484Z,1011.84
2022-10-08T03:57:32.470Z,1011.80
2022-10-08T03:58:32.457Z,1011.81
2022-10-08T03:59:32.448Z,1011.77
2022-10-08T04:00:32.454Z,1011.78
2022-10-08T04:01:32.483Z,1011.79
2022-10-08T04:02:32.552Z,1011.78
2022-10-08T04:03:32.403Z,1011.74
2022-10-08T04:04:32.392Z,1011.76
2022-10-08T04:05:32.381Z,1011.76
2022-10-08T04:06:32.370Z,1011.78
2022-10-08T04:07:32.381Z,1011.76
2022-10-08T04:08:32.346Z,1011.77
2022-10-08T04:09:32.339Z,1011.76
2022-10-08T04:10:32.328Z,1011.78
2022-10-08T04:11:32.315Z,1011.79
2022-10-08T04:12:32.303Z,1011.80
2022-10-08T04:13:32.329Z,1011.76
2022-10-08T04:14:32.286Z,1011.74
2022-10-08T04:15:32.331Z,1011.81
2022-10-08T04:16:32.278Z,1011.81
2022-10-08T04:17:32.248Z,1011.77
2022-10-08T04:18:32.237Z,1011.76
2022-10-08T04:19:32.233Z,1011.75
2022-10-08T04:20:32.215Z,1011.72
2022-10-08T04:21:32.203Z,1011.74
2022-10-08T04:22:32.191Z,1011.75
2022-10-08T04:23:32.182Z,1011.77
2022-10-08T04:24:32.173Z,1011.84
2022-10-08T04:25:32.178Z,1011.79
2022-10-08T04:26:32.150Z,1011.79
2022-10-08T04:27:32.140Z,1011.80
2022-10-08T04:28:36.220Z,1011.83
2022-10-08T04:29:33.113Z,1011.80
2022-10-08T04:30:32.105Z,1011.77
2022-10-08T04:31:32.163Z,1011.77
2022-10-08T04:32:32.100Z,1011.76
2022-10-08T04:33:32.069Z,1011.69
2022-10-08T04:34:32.058Z,1011.73
2022-10-08T04:35:32.049Z,1011.78
2022-10-08T04:36:32.039Z,1011.75
2022-10-08T04:37:32.037Z,1011.73
2022-10-08T04:38:32.025Z,1011.72
2022-10-08T04:39:32.003Z,1011.75
2022-10-08T04:40:31.997Z,1011.79
2022-10-08T04:41:31.983Z,1011.78
2022-10-08T04:42:31.970Z,1011.82
2022-10-08T04:43:31.966Z,1011.82
2022-10-08T04:44:31.949Z,1011.79
2022-10-08T04:45:31.936Z,1011.79
2022-10-08T04:46:31.994Z,1011.77
2022-10-08T04:47:31.915Z,1011.83
2022-10-08T04:48:31.922Z,1011.84
2022-10-08T04:49:31.926Z,1011.83
2022-10-08T04:50:31.888Z,1011.79
2022-10-08T04:51:31.871Z,1011.84
2022-10-08T04:52:31.860Z,1011.82
2022-10-08T04:53:31.849Z,1011.86
2022-10-08T04:54:31.838Z,1011.84
2022-10-08T04:55:31.832Z,1011.86
2022-10-08T04:56:31.815Z,1011.84
2022-10-08T04:57:31.803Z,1011.84
2022-10-08T04:58:31.794Z,1011.83
2022-10-08T04:59:31.782Z,1011.85
2022-10-08T05:00:31.771Z,1011.86
2022-10-08T05:01:31.866Z,1011.86
2022-10-08T05:02:31.821Z,1011.85
2022-10-08T05:03:31.737Z,1011.85
2022-10-08T05:04:31.742Z,1011.88
2022-10-08T05:05:31.715Z,1011.85
2022-10-08T05:06:31.708Z,1011.83
2022-10-08T05:07:31.715Z,1011.81
2022-10-08T05:08:31.682Z,1011.83
2022-10-08T05:09:31.670Z,1011.83
2022-10-08T05:10:31.661Z,1011.83
2022-10-08T05:11:31.649Z,1011.82
2022-10-08T05:12:31.639Z,1011.77
2022-10-08T05:13:31.648Z,1011.78
2022-10-08T05:14:31.616Z,1011.75
2022-10-08T05:15:31.676Z,1011.76
2022-10-08T05:16:31.596Z,1011.79
2022-10-08T05:17:31.584Z,1011.81
2022-10-08T05:18:31.576Z,1011.83
2022-10-08T05:19:31.566Z,1011.82
2022-10-08T05:20:31.576Z,1011.81
2022-10-08T05:21:31.552Z,1011.89
2022-10-08T05:22:31.532Z,1011.88
2022-10-08T05:23:31.520Z,1011.90
2022-10-08T05:24:31.507Z,1011.92
2022-10-08T05:25:31.534Z,1011.87
2022-10-08T05:26:58.169Z,1011.89
2022-10-08T05:27:32.472Z,1011.90
2022-10-08T05:28:31.516Z,1011.90
2022-10-08T05:29:31.449Z,1011.88
2022-10-08T05:30:31.438Z,1011.91
2022-10-08T05:31:31.506Z,1011.91
2022-10-08T05:32:31.420Z,1011.91
2022-10-08T05:33:31.408Z,1011.92
2022-10-08T05:34:31.396Z,1011.88
2022-10-08T05:35:31.383Z,1011.90
2022-10-08T05:36:31.389Z,1011.94
2022-10-08T05:37:31.367Z,1011.94
2022-10-08T05:38:34.790Z,1011.93
2022-10-08T05:39:31.338Z,1011.93
2022-10-08T05:40:31.328Z,1011.90
2022-10-08T05:41:31.320Z,1011.91
2022-10-08T05:42:31.304Z,1011.89
2022-10-08T05:43:31.299Z,1011.96
2022-10-08T05:44:34.856Z,1011.94
2022-10-08T05:45:32.272Z,1011.89
2022-10-08T05:46:31.381Z,1011.86
2022-10-08T05:47:31.249Z,1011.87
2022-10-08T05:48:31.239Z,1011.86
2022-10-08T05:49:31.233Z,1011.86
2022-10-08T05:50:31.215Z,1011.83
2022-10-08T05:51:31.208Z,1011.83
2022-10-08T05:52:31.211Z,1011.87
2022-10-08T05:53:31.185Z,1011.86
2022-10-08T05:54:31.173Z,1011.88
2022-10-08T05:55:31.174Z,1011.89
2022-10-08T05:56:31.152Z,1011.88
2022-10-08T05:57:31.139Z,1011.87
2022-10-08T05:58:31.130Z,1011.85
2022-10-08T05:59:31.117Z,1011.83
2022-10-08T06:00:31.106Z,1011.85
2022-10-08T06:01:31.115Z,1011.83
2022-10-08T06:02:31.134Z,1011.82
2022-10-08T06:03:31.074Z,1011.82
2022-10-08T06:04:31.104Z,1011.84
2022-10-08T06:05:31.052Z,1011.83
2022-10-08T06:06:31.041Z,1011.86
2022-10-08T06:07:31.059Z,1011.88
2022-10-08T06:08:31.035Z,1011.91
2022-10-08T06:09:31.012Z,1011.92
2022-10-08T06:10:30.995Z,1011.97
2022-10-08T06:11:30.984Z,1011.95
2022-10-08T06:12:30.973Z,1012.00
2022-10-08T06:13:30.968Z,1012.00
2022-10-08T06:14:30.951Z,1011.98
2022-10-08T06:15:30.941Z,1011.98
2022-10-08T06:16:30.955Z,1011.95
2022-10-08T06:17:30.919Z,1011.99
2022-10-08T06:18:30.908Z,1011.99
2022-10-08T06:19:31.384Z,1012.02
2022-10-08T06:20:32.168Z,1012.01
2022-10-08T06:21:30.881Z,1012.01
2022-10-08T06:22:30.861Z,1012.02
2022-10-08T06:23:30.851Z,1012.05
2022-10-08T06:24:30.856Z,1012.03
2022-10-08T06:25:30.836Z,1012.07
2022-10-08T06:26:35.410Z,1012.06
2022-10-08T06:27:31.806Z,1012.07
2022-10-08T06:28:30.912Z,1012.11
2022-10-08T06:29:30.790Z,1012.07
2022-10-08T06:30:30.773Z,1012.11
2022-10-08T06:31:30.805Z,1012.17
2022-10-08T06:32:30.750Z,1012.15
2022-10-08T06:33:30.741Z,1012.13
2022-10-08T06:34:30.728Z,1012.19
2022-10-08T06:35:30.717Z,1012.21
2022-10-08T06:36:30.705Z,1012.25
2022-10-08T06:37:30.716Z,1012.30
2022-10-08T06:38:30.683Z,1012.31
2022-10-08T06:39:30.671Z,1012.24
2022-10-08T06:40:30.681Z,1012.21
2022-10-08T06:41:30.651Z,1012.24
2022-10-08T06:42:30.639Z,1012.21
2022-10-08T06:43:30.644Z,1012.22
2022-10-08T06:44:30.618Z,1012.27
2022-10-08T06:45:30.606Z,1012.33
2022-10-08T06:46:30.661Z,1012.32
2022-10-08T06:47:30.587Z,1012.34
2022-10-08T06:48:30.575Z,1012.34
2022-10-08T06:49:30.570Z,1012.28
2022-10-08T06:50:30.550Z,1012.33
2022-10-08T06:51:30.542Z,1012.30
2022-10-08T06:52:30.529Z,1012.34
2022-10-08T06:53:30.519Z,1012.35
2022-10-08T06:54:30.507Z,1012.37
2022-10-08T06:55:30.502Z,1012.35
2022-10-08T06:56:30.500Z,1012.37
2022-10-08T06:57:30.477Z,1012.38
2022-10-08T06:58:30.464Z,1012.36
2022-10-08T06:59:30.453Z,1012.39
2022-10-08T07:00:30.440Z,1012.43
2022-10-08T07:01:33.892Z,1012.40
2022-10-08T07:02:30.489Z,1012.39
2022-10-08T07:03:30.406Z,1012.41
2022-10-08T07:04:30.396Z,1012.43
2022-10-08T07:05:30.386Z,1012.40
2022-10-08T07:06:30.374Z,1012.41
2022-10-08T07:07:30.369Z,1012.41
2022-10-08T07:08:30.353Z,1012.45
2022-10-08T07:09:30.339Z,1012.43
2022-10-08T07:10:33.227Z,1012.41
2022-10-08T07:11:30.332Z,1012.44
2022-10-08T07:12:30.323Z,1012.44
2022-10-08T07:13:30.312Z,1012.43
2022-10-08T07:14:30.284Z,1012.46
2022-10-08T07:15:30.273Z,1012.42
2022-10-08T07:16:30.398Z,1012.40
2022-10-08T07:17:30.252Z,1012.44
2022-10-08T07:18:30.239Z,1012.44
2022-10-08T07:19:30.277Z,1012.44
2022-10-08T07:20:30.219Z,1012.44
2022-10-08T07:21:30.210Z,1012.46
2022-10-08T07:22:30.197Z,1012.48
2022-10-08T07:23:30.190Z,1012.48
2022-10-08T07:24:30.176Z,1012.51
2022-10-08T07:25:30.184Z,1012.55
2022-10-08T07:26:30.150Z,1012.53
2022-10-08T07:27:30.140Z,1012.55
2022-10-08T07:28:30.222Z,1012.54
2022-10-08T07:29:30.121Z,1012.55
2022-10-08T07:30:30.106Z,1012.51
2022-10-08T07:31:30.212Z,1012.50
2022-10-08T07:32:30.084Z,1012.49
2022-10-08T07:33:30.074Z,1012.50
2022-10-08T07:34:30.065Z,1012.51
2022-10-08T07:35:30.053Z,1012.51
2022-10-08T07:36:30.041Z,1012.53
2022-10-08T07:37:30.037Z,1012.57
2022-10-08T07:38:30.018Z,1012.59
2022-10-08T07:39:30.008Z,1012.58
2022-10-08T07:40:29.996Z,1012.60
2022-10-08T07:41:29.986Z,1012.62
2022-10-08T07:42:29.974Z,1012.56
2022-10-08T07:43:29.970Z,1012.57
2022-10-08T07:44:29.968Z,1012.62
2022-10-08T07:45:30.043Z,1012.56
2022-10-08T07:46:29.932Z,1012.53
2022-10-08T07:47:29.919Z,1012.60
2022-10-08T07:48:33.881Z,1012.49
2022-10-08T07:49:29.901Z,1012.53
2022-10-08T07:50:29.885Z,1012.51
2022-10-08T07:51:29.873Z,1012.57
2022-10-08T07:52:29.863Z,1012.59
2022-10-08T07:53:29.855Z,1012.60
2022-10-08T07:54:29.842Z,1012.57
2022-10-08T07:55:29.836Z,1012.63
2022-10-08T07:56:29.818Z,1012.59
2022-10-08T07:57:29.807Z,1012.60
2022-10-08T07:58:29.797Z,1012.58
2022-10-08T07:59:29.785Z,1012.62
2022-10-08T08:00:29.855Z,1012.68
2022-10-08T08:01:30.077Z,1012.67
2022-10-08T08:02:29.821Z,1012.67
2022-10-08T08:03:29.749Z,1012.60
2022-10-08T08:04:29.731Z,1012.63
2022-10-08T08:05:29.719Z,1012.76
2022-10-08T08:06:29.707Z,1012.74
2022-10-08T08:07:29.706Z,1012.71
2022-10-08T08:08:29.685Z,1012.68
2022-10-08T08:09:29.675Z,1012.71
2022-10-08T08:10:29.667Z,1012.75
2022-10-08T08:11:29.653Z,1012.76
2022-10-08T08:12:29.652Z,1012.76
2022-10-08T08:13:34.290Z,1012.72
2022-10-08T08:14:30.617Z,1012.82
2022-10-08T08:15:29.608Z,1012.80
2022-10-08T08:16:29.772Z,1012.82
2022-10-08T08:17:29.590Z,1012.81
2022-10-08T08:18:29.576Z,1012.85
2022-10-08T08:19:29.577Z,1012.80
2022-10-08T08:20:29.551Z,1012.83
2022-10-08T08:21:29.545Z,1012.81
2022-10-08T08:22:29.532Z,1012.84
2022-10-08T08:23:29.523Z,1012.73
2022-10-08T08:24:29.516Z,1012.75
2022-10-08T08:25:29.503Z,1012.77
2022-10-08T08:26:29.487Z,1012.78
2022-10-08T08:27:29.476Z,1012.79
2022-10-08T08:28:29.497Z,1012.84
2022-10-08T08:29:29.453Z,1012.79
2022-10-08T08:30:29.442Z,1012.83
2022-10-08T08:31:30.474Z,1012.87
2022-10-08T08:32:29.453Z,1012.86
2022-10-08T08:33:29.411Z,1012.84
2022-10-08T08:34:29.396Z,1012.78
2022-10-08T08:35:29.387Z,1012.84
2022-10-08T08:36:29.384Z,1012.77
2022-10-08T08:37:29.369Z,1012.78
2022-10-08T08:38:29.352Z,1012.74
2022-10-08T08:39:29.348Z,1012.77
2022-10-08T08:40:29.335Z,1012.76
2022-10-08T08:41:29.320Z,1012.79
2022-10-08T08:42:29.308Z,1012.75
2022-10-08T08:43:29.314Z,1012.73
2022-10-08T08:44:29.289Z,1012.75
2022-10-08T08:45:45.840Z,1012.83
2022-10-08T08:46:30.329Z,1012.79
2022-10-08T08:47:29.253Z,1012.81
2022-10-08T08:48:29.260Z,1012.81
2022-10-08T08:49:29.239Z,1012.77
2022-10-08T08:50:29.220Z,1012.81
2022-10-08T08:51:29.212Z,1012.78
2022-10-08T08:52:29.198Z,1012.79
2022-10-08T08:53:29.217Z,1012.78
2022-10-08T08:54:29.180Z,1012.77
2022-10-08T08:55:29.194Z,1012.79
2022-10-08T08:56:29.161Z,1012.80
2022-10-08T08:57:29.147Z,1012.81
2022-10-08T08:58:29.134Z,1012.81
2022-10-08T08:59:29.129Z,1012.83
2022-10-08T09:00:29.111Z,1012.77
2022-10-08T09:01:29.183Z,1012.76
2022-10-08T09:02:29.092Z,1012.77
2022-10-08T09:03:29.081Z,1012.74
2022-10-08T09:04:29.082Z,1012.79
2022-10-08T09:05:29.092Z,1012.82
2022-10-08T09:06:29.056Z,1012.83
2022-10-08T09:07:29.049Z,1012.78
2022-10-08T09:08:29.031Z,1012.82
2022-10-08T09:09:29.010Z,1012.79
2022-10-08T09:10:29.020Z,1012.80
2022-10-08T09:11:28.989Z,1012.83
2022-10-08T09:12:28.976Z,1012.78
2022-10-08T09:13:28.978Z,1012.83
2022-10-08T09:14:28.953Z,1012.84
2022-10-08T09:15:28.950Z,1012.79
2022-10-08T09:16:28.991Z,1012.83
2022-10-08T09:17:28.925Z,1012.87
2022-10-08T09:18:28.915Z,1012.91
2022-10-08T09:19:28.905Z,1012.85
2022-10-08T09:20:28.909Z,1012.80
2022-10-08T09:21:28.879Z,1012.82
2022-10-08T09:22:28.866Z,1012.87
2022-10-08T09:23:28.855Z,1012.82
2022-10-08T09:24:28.844Z,1012.83
2022-10-08T09:25:28.840Z,1012.80
2022-10-08T09:26:28.822Z,1012.88
2022-10-08T09:27:28.813Z,1012.86
2022-10-08T09:28:28.847Z,1012.89
2022-10-08T09:29:28.788Z,1012.92
2022-10-08T09:30:28.874Z,1012.91
2022-10-08T09:31:28.823Z,1012.97
2022-10-08T09:32:28.761Z,1012.95
2022-10-08T09:33:28.745Z,1012.94
2022-10-08T09:34:28.734Z,1012.97
2022-10-08T09:35:28.725Z,1012.95
2022-10-08T09:36:28.730Z,1012.96
2022-10-08T09:37:28.733Z,1012.99
2022-10-08T09:38:28.690Z,1012.99
2022-10-08T09:39:28.687Z,1013.00
2022-10-08T09:40:28.669Z,1013.00
2022-10-08T09:41:28.660Z,1013.01
2022-10-08T09:42:28.655Z,1013.01
2022-10-08T09:43:28.650Z,1013.01
2022-10-08T09:44:28.624Z,1013.02
2022-10-08T09:45:28.614Z,1013.06
2022-10-08T09:46:28.765Z,1013.09
2022-10-08T09:47:28.592Z,1013.03
2022-10-08T09:48:28.584Z,1013.03
2022-10-08T09:49:28.585Z,1013.01
2022-10-08T09:50:28.559Z,1012.97
2022-10-08T09:51:28.547Z,1013.04
2022-10-08T09:52:28.553Z,1013.00
2022-10-08T09:53:28.526Z,1013.01
2022-10-08T09:54:28.524Z,1013.06
2022-10-08T09:55:28.513Z,1013.07
2022-10-08T09:56:28.492Z,1013.07
2022-10-08T09:57:28.482Z,1013.07
2022-10-08T09:58:28.468Z,1013.06
2022-10-08T09:59:28.456Z,1013.06
2022-10-08T10:00:28.446Z,1013.08
2022-10-08T10:01:28.523Z,1013.10
2022-10-08T10:02:28.434Z,1013.11
2022-10-08T10:03:28.437Z,1013.08
2022-10-08T10:04:28.406Z,1013.07
2022-10-08T10:05:28.391Z,1013.10
2022-10-08T10:06:28.385Z,1013.09
2022-10-08T10:07:28.375Z,1013.08
2022-10-08T10:08:28.375Z,1013.09
2022-10-08T10:09:28.348Z,1013.16
2022-10-08T10:10:28.336Z,1013.14
2022-10-08T10:11:28.327Z,1013.10
2022-10-08T10:12:28.313Z,1013.14
2022-10-08T10:13:28.325Z,1013.10
2022-10-08T10:14:28.293Z,1013.14
2022-10-08T10:15:28.282Z,1013.17
2022-10-08T10:16:28.342Z,1013.14
2022-10-08T10:17:28.261Z,1013.17
2022-10-08T10:18:28.253Z,1013.17
2022-10-08T10:19:28.248Z,1013.15
2022-10-08T10:20:28.224Z,1013.18
2022-10-08T10:21:28.216Z,1013.21
2022-10-08T10:22:28.203Z,1013.20
2022-10-08T10:23:28.193Z,1013.19
2022-10-08T10:24:28.197Z,1013.19
2022-10-08T10:25:28.179Z,1013.23
2022-10-08T10:26:28.160Z,1013.22
2022-10-08T10:27:28.153Z,1013.21
2022-10-08T10:28:28.173Z,1013.20
2022-10-08T10:29:28.127Z,1013.16
2022-10-08T10:30:28.126Z,1013.18
2022-10-08T10:31:28.113Z,1013.22
2022-10-08T10:32:31.809Z,1013.20
2022-10-08T10:33:28.083Z,1013.26
2022-10-08T10:34:28.072Z,1013.20
2022-10-08T10:35:28.060Z,1013.21
2022-10-08T10:36:28.051Z,1013.21
2022-10-08T10:37:28.046Z,1013.22
2022-10-08T10:38:28.029Z,1013.26
2022-10-08T10:39:28.018Z,1013.30
2022-10-08T10:40:28.038Z,1013.26
2022-10-08T10:41:27.994Z,1013.29
2022-10-08T10:42:27.989Z,1013.29
2022-10-08T10:43:27.996Z,1013.27
2022-10-08T10:44:27.963Z,1013.24
2022-10-08T10:45:27.949Z,1013.30
2022-10-08T10:46:28.076Z,1013.31
2022-10-08T10:47:31.826Z,1013.32
2022-10-08T10:48:27.917Z,1013.34
2022-10-08T10:49:27.915Z,1013.34
2022-10-08T10:50:27.896Z,1013.32
2022-10-08T10:51:27.883Z,1013.30
2022-10-08T10:52:27.873Z,1013.33
2022-10-08T10:53:27.864Z,1013.35
2022-10-08T10:54:27.854Z,1013.38
2022-10-08T10:55:27.870Z,1013.34
2022-10-08T10:56:27.846Z,1013.37
2022-10-08T10:57:27.825Z,1013.37
2022-10-08T10:58:27.812Z,1013.32
2022-10-08T10:59:27.800Z,1013.40
2022-10-08T11:00:27.784Z,1013.39
2022-10-08T11:01:27.839Z,1013.39
2022-10-08T11:02:27.773Z,1013.39
2022-10-08T11:03:27.751Z,1013.39
2022-10-08T11:04:27.741Z,1013.33
2022-10-08T11:05:27.729Z,1013.33
2022-10-08T11:06:27.721Z,1013.31
2022-10-08T11:07:27.726Z,1013.35
2022-10-08T11:08:27.699Z,1013.28
2022-10-08T11:09:27.685Z,1013.30
2022-10-08T11:10:27.674Z,1013.39
2022-10-08T11:11:32.932Z,1013.32
2022-10-08T11:12:28.674Z,1013.29
2022-10-08T11:13:27.649Z,1013.32
2022-10-08T11:14:27.634Z,1013.34
2022-10-08T11:15:27.620Z,1013.30
2022-10-08T11:16:27.609Z,1013.27
2022-10-08T11:17:27.604Z,1013.28
2022-10-08T11:18:27.591Z,1013.31
2022-10-08T11:19:27.580Z,1013.29
2022-10-08T11:20:27.574Z,1013.32
2022-10-08T11:21:27.555Z,1013.32
2022-10-08T11:22:27.543Z,1013.31
2022-10-08T11:23:27.540Z,1013.33
2022-10-08T11:24:27.552Z,1013.31
2022-10-08T11:25:27.510Z,1013.30
2022-10-08T11:26:27.497Z,1013.28
2022-10-08T11:27:27.488Z,1013.30
2022-10-08T11:28:27.538Z,1013.32
2022-10-08T11:29:27.464Z,1013.32
2022-10-08T11:30:27.469Z,1013.32
2022-10-08T11:31:27.531Z,1013.34
2022-10-08T11:32:27.431Z,1013.32
2022-10-08T11:33:27.420Z,1013.32
2022-10-08T11:34:27.409Z,1013.31
2022-10-08T11:35:27.398Z,1013.31
2022-10-08T11:36:32.652Z,1013.32
2022-10-08T11:37:28.374Z,1013.34
2022-10-08T11:38:27.366Z,1013.41
2022-10-08T11:39:27.356Z,1013.39
2022-10-08T11:40:27.347Z,1013.36
2022-10-08T11:41:27.335Z,1013.38
2022-10-08T11:42:27.327Z,1013.40
2022-10-08T11:43:27.311Z,1013.44
2022-10-08T11:44:27.313Z,1013.43
2022-10-08T11:45:27.286Z,1013.44
2022-10-08T11:46:27.351Z,1013.42
2022-10-08T11:47:27.290Z,1013.46
2022-10-08T11:48:27.276Z,1013.44
2022-10-08T11:49:27.249Z,1013.45
2022-10-08T11:50:27.237Z,1013.46
2022-10-08T11:51:27.224Z,1013.47
2022-10-08T11:52:27.230Z,1013.52
2022-10-08T11:53:27.199Z,1013.54
2022-10-08T11:54:27.193Z,1013.54
2022-10-08T11:55:27.177Z,1013.57
2022-10-08T11:56:27.165Z,1013.63
2022-10-08T11:57:35.129Z,1013.67
2022-10-08T11:58:28.152Z,1013.68
2022-10-08T11:59:27.131Z,1013.64
2022-10-08T12:00:27.159Z,1013.65
2022-10-08T12:01:27.113Z,1013.62
2022-10-08T12:02:27.216Z,1013.67
2022-10-08T12:03:27.426Z,1013.61
2022-10-08T12:04:27.082Z,1013.63
2022-10-08T12:05:27.072Z,1013.61